createdAt,value
2023-05-19T00:02:12.532Z,2.73
2023-05-19T00:04:41.724Z,3.13
2023-05-19T00:07:10.647Z,3.13
2023-05-19T00:09:41.083Z,2.70
2023-05-19T00:12:10.898Z,3.20
2023-05-19T00:14:39.702Z,2.97
2023-05-19T00:17:09.660Z,2.80
2023-05-19T00:19:38.171Z,2.50
2023-05-19T00:22:06.521Z,3.43
2023-05-19T00:24:34.877Z,2.80
2023-05-19T00:27:04.836Z,2.97
2023-05-19T00:29:33.730Z,2.70
2023-05-19T00:32:02.513Z,3.00
2023-05-19T00:34:30.837Z,3.00
2023-05-19T00:36:59.124Z,3.23
2023-05-19T00:39:27.469Z,3.10
2023-05-19T00:41:55.843Z,2.87
2023-05-19T00:44:25.848Z,2.83
2023-05-19T00:46:54.210Z,3.30
2023-05-19T00:49:22.856Z,3.00
2023-05-19T00:51:51.701Z,2.93
2023-05-19T00:54:20.517Z,3.00
2023-05-19T00:56:49.924Z,3.13
2023-05-19T00:59:18.822Z,2.90
2023-05-19T01:01:49.350Z,2.83
2023-05-19T01:04:17.723Z,3.07
2023-05-19T01:06:46.084Z,2.80
2023-05-19T01:09:14.554Z,3.07
2023-05-19T01:11:43.212Z,2.60
2023-05-19T01:14:11.800Z,3.63
2023-05-19T01:16:41.714Z,3.20
2023-05-19T01:19:16.302Z,3.23
2023-05-19T01:22:04.080Z,3.10
2023-05-19T01:25:10.983Z,3.10
2023-05-19T01:27:48.539Z,2.97
2023-05-19T01:30:32.153Z,3.03
2023-05-19T01:33:01.817Z,2.77
2023-05-19T01:35:30.223Z,3.10
2023-05-19T01:38:00.506Z,3.40
2023-05-19T01:40:29.105Z,3.30
2023-05-19T01:42:59.629Z,3.10
2023-05-19T01:45:28.167Z,3.00
2023-05-19T01:47:58.853Z,3.07
2023-05-19T01:50:27.278Z,3.00
2023-05-19T01:52:56.459Z,2.77
2023-05-19T01:55:25.404Z,3.53
2023-05-19T01:58:04.131Z,3.23
2023-05-19T02:00:38.540Z,3.00
2023-05-19T02:03:12.909Z,3.30
2023-05-19T02:05:45.578Z,3.37
2023-05-19T02:08:30.932Z,3.20
2023-05-19T02:11:05.119Z,3.57
2023-05-19T02:13:35.754Z,3.30
2023-05-19T02:16:06.068Z,2.90
2023-05-19T02:18:36.701Z,3.20
2023-05-19T02:21:05.187Z,3.00
2023-05-19T02:23:33.713Z,2.90
2023-05-19T02:26:02.078Z,2.93
2023-05-19T02:28:30.333Z,3.30
2023-05-19T02:30:59.944Z,3.10
2023-05-19T02:33:31.603Z,2.93
2023-05-19T02:36:01.343Z,3.20
2023-05-19T02:38:30.470Z,3.27
2023-05-19T02:40:59.182Z,3.23
2023-05-19T02:43:27.605Z,3.37
2023-05-19T02:45:56.423Z,2.97
2023-05-19T02:48:25.053Z,3.40
2023-05-19T02:50:53.341Z,3.23
2023-05-19T02:53:23.158Z,3.43
2023-05-19T02:55:51.540Z,3.27
2023-05-19T02:58:20.930Z,3.10
2023-05-19T03:00:49.414Z,3.00
2023-05-19T03:03:18.262Z,3.23
2023-05-19T03:05:47.396Z,3.23
2023-05-19T03:08:15.732Z,3.10
2023-05-19T03:10:45.451Z,3.43
2023-05-19T03:13:13.795Z,3.33
2023-05-19T03:15:42.831Z,3.60
2023-05-19T03:18:12.102Z,4.00
2023-05-19T03:20:42.519Z,3.30
2023-05-19T03:23:10.850Z,3.13
2023-05-19T03:25:39.088Z,3.20
2023-05-19T03:28:09.072Z,3.60
2023-05-19T03:30:37.407Z,2.90
2023-05-19T03:33:13.523Z,3.30
2023-05-19T03:35:42.354Z,3.60
2023-05-19T03:38:10.610Z,3.20
2023-05-19T03:40:41.439Z,3.13
2023-05-19T03:43:14.495Z,3.90
2023-05-19T03:45:48.547Z,3.37
2023-05-19T03:48:37.116Z,3.43
2023-05-19T03:51:20.498Z,4.17
2023-05-19T03:53:52.085Z,3.87
2023-05-19T03:56:24.178Z,3.40
2023-05-19T03:58:54.859Z,3.70
2023-05-19T04:01:23.134Z,3.47
2023-05-19T04:03:51.413Z,3.80
2023-05-19T04:06:20.224Z,3.50
2023-05-19T04:08:48.482Z,3.37
2023-05-19T04:11:20.041Z,3.10
2023-05-19T04:13:48.347Z,4.00
2023-05-19T04:16:18.132Z,3.30
2023-05-19T04:18:46.651Z,3.97
2023-05-19T04:21:15.028Z,3.73
2023-05-19T04:23:43.878Z,3.50
2023-05-19T04:26:12.352Z,3.63
2023-05-19T04:28:42.460Z,3.53
2023-05-19T04:31:11.194Z,3.10
2023-05-19T04:33:41.394Z,3.50
2023-05-19T04:36:10.800Z,3.43
2023-05-19T04:38:41.994Z,3.43
2023-05-19T04:41:12.630Z,3.87
2023-05-19T04:43:44.816Z,3.33
2023-05-19T04:46:14.820Z,3.57
2023-05-19T04:48:47.751Z,3.23
2023-05-19T04:51:17.762Z,3.90
2023-05-19T04:53:46.512Z,3.80
2023-05-19T04:56:15.878Z,3.43
2023-05-19T04:58:46.873Z,3.50
2023-05-19T05:01:15.932Z,3.93
2023-05-19T05:03:46.564Z,3.40
2023-05-19T05:06:15.409Z,3.10
2023-05-19T05:08:44.059Z,3.87
2023-05-19T05:11:13.225Z,3.37
2023-05-19T05:13:42.021Z,3.30
2023-05-19T05:16:12.418Z,3.80
2023-05-19T05:18:44.328Z,3.33
2023-05-19T05:21:15.588Z,3.50
2023-05-19T05:23:44.455Z,3.20
2023-05-19T05:26:18.302Z,3.30
2023-05-19T05:28:48.444Z,3.57
2023-05-19T05:31:17.268Z,3.63
2023-05-19T05:33:46.603Z,3.10
2023-05-19T05:36:17.480Z,3.50
2023-05-19T05:38:45.944Z,3.23
2023-05-19T05:41:14.252Z,3.07
2023-05-19T05:43:42.629Z,2.73
2023-05-19T05:46:11.177Z,2.70
2023-05-19T05:48:42.128Z,2.60
2023-05-19T05:51:11.757Z,2.90
2023-05-19T05:53:44.313Z,2.90
2023-05-19T05:56:15.508Z,2.87
2023-05-19T05:58:50.740Z,2.77
2023-05-19T06:01:19.105Z,2.90
2023-05-19T06:03:47.805Z,2.93
2023-05-19T06:06:21.332Z,2.50
2023-05-19T06:08:51.130Z,2.50
2023-05-19T06:11:21.541Z,2.60
2023-05-19T06:13:50.374Z,2.93
2023-05-19T06:16:37.359Z,3.10
2023-05-19T06:19:05.965Z,2.50
2023-05-19T06:21:34.376Z,2.97
2023-05-19T06:24:04.097Z,2.70
2023-05-19T06:26:32.972Z,2.70
2023-05-19T06:29:01.975Z,2.60
2023-05-19T06:31:31.548Z,3.30
2023-05-19T06:34:06.478Z,2.87
2023-05-19T06:36:35.307Z,2.20
2023-05-19T06:39:05.641Z,2.73
2023-05-19T06:41:34.822Z,2.67
2023-05-19T06:44:04.546Z,2.50
2023-05-19T06:46:35.028Z,2.63
2023-05-19T06:49:03.458Z,2.50
2023-05-19T06:51:35.978Z,2.43
2023-05-19T06:54:05.953Z,2.47
2023-05-19T06:56:34.290Z,2.47
2023-05-19T06:59:02.843Z,2.93
2023-05-19T07:01:35.730Z,2.50
2023-05-19T07:04:05.387Z,2.77
2023-05-19T07:06:34.034Z,3.13
2023-05-19T07:09:05.282Z,2.80
2023-05-19T07:11:35.789Z,3.13
2023-05-19T07:14:04.530Z,2.50
2023-05-19T07:16:33.750Z,2.60
2023-05-19T07:19:02.142Z,2.80
2023-05-19T07:21:30.967Z,2.47
2023-05-19T07:23:59.330Z,2.40
2023-05-19T07:26:30.049Z,2.77
2023-05-19T07:28:59.725Z,2.63
2023-05-19T07:31:28.060Z,2.60
2023-05-19T07:33:56.320Z,2.80
2023-05-19T07:36:24.975Z,2.90
2023-05-19T07:38:53.296Z,2.90
2023-05-19T07:41:21.652Z,2.70
2023-05-19T07:43:49.982Z,2.80
2023-05-19T07:46:19.777Z,3.00
2023-05-19T07:48:48.445Z,2.80
2023-05-19T07:51:17.059Z,2.70
2023-05-19T07:53:47.131Z,3.20
2023-05-19T07:56:15.521Z,3.27
2023-05-19T07:58:43.759Z,3.27
2023-05-19T08:01:12.436Z,3.07
2023-05-19T08:03:42.115Z,2.90
2023-05-19T08:06:10.400Z,3.00
2023-05-19T08:08:38.712Z,3.23
2023-05-19T08:11:07.052Z,3.43
2023-05-19T08:13:35.903Z,3.00
2023-05-19T08:16:05.339Z,3.63
2023-05-19T08:18:33.669Z,3.53
2023-05-19T08:21:03.500Z,3.43
2023-05-19T08:23:31.904Z,3.80
2023-05-19T08:26:00.145Z,3.40
2023-05-19T08:28:28.361Z,3.20
2023-05-19T08:30:57.260Z,3.00
2023-05-19T08:33:25.606Z,3.27
2023-05-19T08:35:55.484Z,3.50
2023-05-19T08:38:25.147Z,3.63
2023-05-19T08:40:53.554Z,3.50
2023-05-19T08:43:22.456Z,3.30
2023-05-19T08:45:50.915Z,3.13
2023-05-19T08:48:19.553Z,3.10
2023-05-19T08:50:58.342Z,2.90
2023-05-19T08:53:33.329Z,3.23
2023-05-19T08:56:10.218Z,2.90
2023-05-19T08:58:40.100Z,3.63
2023-05-19T09:01:09.418Z,3.30
2023-05-19T09:03:38.452Z,3.43
2023-05-19T09:06:08.846Z,3.30
2023-05-19T09:08:38.708Z,2.97
2023-05-19T09:11:07.400Z,2.90
2023-05-19T09:13:35.758Z,3.10
2023-05-19T09:16:04.401Z,3.10
2023-05-19T09:18:33.113Z,3.23
2023-05-19T09:21:03.208Z,3.10
2023-05-19T09:23:33.573Z,3.20
2023-05-19T09:26:07.737Z,2.80
2023-05-19T09:28:37.941Z,2.87
2023-05-19T09:31:07.114Z,3.03
2023-05-19T09:33:36.309Z,2.93
2023-05-19T09:36:06.185Z,2.53
2023-05-19T09:38:34.875Z,2.87
2023-05-19T09:41:06.017Z,2.47
2023-05-19T09:43:34.631Z,2.50
2023-05-19T09:46:05.222Z,2.90
2023-05-19T09:48:33.600Z,2.93
2023-05-19T09:51:02.473Z,2.80
2023-05-19T09:53:34.547Z,2.80
2023-05-19T09:56:04.595Z,2.87
2023-05-19T09:58:34.767Z,2.60
2023-05-19T10:01:03.264Z,2.83
2023-05-19T10:03:31.749Z,2.70
2023-05-19T10:06:00.475Z,2.17
2023-05-19T10:08:30.381Z,2.70
2023-05-19T10:10:58.985Z,2.60
2023-05-19T10:13:28.950Z,2.17
2023-05-19T10:15:59.421Z,2.67
2023-05-19T10:18:30.055Z,2.70
2023-05-19T10:20:58.822Z,2.60
2023-05-19T10:23:27.132Z,2.70
2023-05-19T10:25:56.812Z,2.80
2023-05-19T10:28:28.098Z,3.17
2023-05-19T10:30:58.856Z,2.87
2023-05-19T10:33:31.150Z,2.60
2023-05-19T10:36:08.699Z,2.80
2023-05-19T10:38:43.073Z,2.57
2023-05-19T10:41:14.383Z,2.83
2023-05-19T10:43:49.401Z,2.77
2023-05-19T10:46:19.470Z,2.77
2023-05-19T10:48:47.773Z,2.57
2023-05-19T10:51:16.334Z,2.90
2023-05-19T10:53:47.308Z,2.90
2023-05-19T10:56:30.352Z,2.90
2023-05-19T10:58:58.967Z,2.87
2023-05-19T11:01:33.510Z,2.50
2023-05-19T11:04:06.588Z,2.67
2023-05-19T11:06:35.846Z,2.30
2023-05-19T11:09:11.794Z,2.60
2023-05-19T11:11:48.014Z,2.47
2023-05-19T11:14:18.154Z,2.80
2023-05-19T11:16:49.512Z,2.70
2023-05-19T11:19:21.593Z,2.57
2023-05-19T11:21:50.673Z,2.27
2023-05-19T11:24:37.816Z,3.03
2023-05-19T11:27:22.486Z,2.40
2023-05-19T11:29:51.310Z,2.40
2023-05-19T11:32:21.650Z,2.83
2023-05-19T11:34:50.051Z,2.30
2023-05-19T11:37:18.378Z,2.80
2023-05-19T11:39:47.463Z,2.70
2023-05-19T11:42:15.788Z,2.80
2023-05-19T11:44:46.189Z,2.80
2023-05-19T11:47:15.196Z,2.47
2023-05-19T11:49:46.289Z,2.80
2023-05-19T11:52:14.883Z,3.40
2023-05-19T11:54:43.206Z,3.17
2023-05-19T11:57:11.679Z,2.80
2023-05-19T11:59:43.901Z,3.50
2023-05-19T12:02:17.813Z,3.03
2023-05-19T12:04:47.642Z,3.10
2023-05-19T12:07:18.490Z,2.93
2023-05-19T12:09:47.234Z,3.30
2023-05-19T12:12:17.066Z,3.27
2023-05-19T12:14:45.497Z,2.70
2023-05-19T12:17:14.561Z,3.10
2023-05-19T12:19:44.547Z,2.60
2023-05-19T12:22:14.215Z,3.00
2023-05-19T12:24:43.054Z,2.70
2023-05-19T12:27:19.564Z,2.60
2023-05-19T12:29:51.826Z,2.70
2023-05-19T12:32:20.590Z,2.70
2023-05-19T12:34:49.280Z,3.10
2023-05-19T12:37:19.774Z,2.80
2023-05-19T12:39:49.292Z,2.40
2023-05-19T12:42:17.873Z,2.57
2023-05-19T12:44:47.527Z,2.73
2023-05-19T12:47:16.716Z,2.40
2023-05-19T12:49:58.036Z,2.43
2023-05-19T12:52:29.091Z,2.37
2023-05-19T12:55:01.090Z,2.40
2023-05-19T12:57:31.654Z,2.70
2023-05-19T13:00:06.913Z,2.67
2023-05-19T13:02:36.884Z,2.37
2023-05-19T13:05:05.908Z,2.40
2023-05-19T13:07:35.782Z,2.53
2023-05-19T13:10:04.239Z,2.63
2023-05-19T13:12:32.478Z,2.50
2023-05-19T13:15:01.276Z,2.47
2023-05-19T13:17:29.666Z,2.60
2023-05-19T13:19:58.406Z,3.20
2023-05-19T13:22:26.723Z,2.67
2023-05-19T13:24:59.008Z,2.80
2023-05-19T13:27:27.697Z,2.63
2023-05-19T13:29:56.006Z,2.57
2023-05-19T13:32:24.676Z,2.80
2023-05-19T13:34:53.032Z,2.33
2023-05-19T13:37:21.630Z,2.70
2023-05-19T13:39:49.930Z,2.90
2023-05-19T13:42:20.030Z,2.93
2023-05-19T13:44:48.370Z,2.30
2023-05-19T13:47:16.862Z,2.57
2023-05-19T13:49:45.263Z,2.60
2023-05-19T13:52:13.573Z,2.80
2023-05-19T13:54:41.859Z,2.40
2023-05-19T13:57:10.680Z,2.50
2023-05-19T13:59:52.942Z,2.77
2023-05-19T14:02:30.511Z,2.47
2023-05-19T14:04:59.069Z,2.50
2023-05-19T14:07:27.305Z,2.57
2023-05-19T14:09:56.327Z,2.77
2023-05-19T14:12:33.921Z,3.10
2023-05-19T14:15:11.587Z,3.10
2023-05-19T14:17:40.090Z,2.80
2023-05-19T14:20:09.677Z,2.80
2023-05-19T14:22:38.412Z,3.13
2023-05-19T14:25:07.541Z,2.80
2023-05-19T14:27:35.797Z,2.57
2023-05-19T14:30:04.130Z,3.33
2023-05-19T14:32:33.876Z,3.23
2023-05-19T14:35:02.258Z,2.37
2023-05-19T14:37:32.001Z,2.43
2023-05-19T14:40:01.298Z,3.43
2023-05-19T14:42:30.342Z,2.80
2023-05-19T14:44:58.620Z,2.77
2023-05-19T14:47:27.502Z,3.30
2023-05-19T14:49:57.592Z,2.63
2023-05-19T14:52:26.363Z,3.00
2023-05-19T14:54:55.933Z,3.13
2023-05-19T14:57:24.208Z,2.73
2023-05-19T14:59:52.519Z,2.93
2023-05-19T15:02:20.871Z,3.07
2023-05-19T15:04:49.338Z,3.30
2023-05-19T15:07:19.021Z,3.00
2023-05-19T15:09:47.342Z,2.83
2023-05-19T15:12:15.634Z,3.30
2023-05-19T15:14:43.937Z,3.30
2023-05-19T15:17:12.526Z,3.30
2023-05-19T15:19:42.846Z,2.43
2023-05-19T15:22:11.124Z,3.57
2023-05-19T15:24:41.354Z,3.37
2023-05-19T15:27:09.708Z,3.03
2023-05-19T15:29:37.948Z,3.30
2023-05-19T15:32:07.376Z,3.43
2023-05-19T15:34:35.590Z,3.20
2023-05-19T15:37:04.602Z,2.90
2023-05-19T15:39:33.725Z,2.77
2023-05-19T15:42:03.399Z,3.13
2023-05-19T15:44:31.673Z,2.63
2023-05-19T15:47:00.525Z,2.90
2023-05-19T15:49:28.791Z,3.27
2023-05-19T15:51:57.046Z,3.00
2023-05-19T15:54:25.325Z,2.97
2023-05-19T15:56:53.551Z,3.37
2023-05-19T15:59:25.708Z,3.30
2023-05-19T16:01:54.034Z,4.93
2023-05-19T16:04:22.795Z,4.13
2023-05-19T16:06:51.380Z,2.97
2023-05-19T16:09:20.118Z,3.07
2023-05-19T16:11:48.382Z,3.47
2023-05-19T16:14:16.661Z,2.90
2023-05-19T16:16:47.655Z,3.10
2023-05-19T16:19:15.993Z,2.87
2023-05-19T16:21:44.262Z,3.00
2023-05-19T16:24:12.505Z,3.07
2023-05-19T16:26:41.185Z,2.93
2023-05-19T16:29:09.474Z,3.13
2023-05-19T16:31:37.791Z,3.03
2023-05-19T16:34:07.532Z,3.13
2023-05-19T16:36:36.544Z,3.77
2023-05-19T16:39:05.059Z,3.30
2023-05-19T16:41:33.637Z,3.63
2023-05-19T16:44:02.490Z,3.57
2023-05-19T16:46:31.645Z,3.90
2023-05-19T16:49:00.067Z,4.53
2023-05-19T16:51:29.759Z,3.30
2023-05-19T16:53:58.252Z,4.20
2023-05-19T16:56:26.544Z,3.50
2023-05-19T16:58:55.180Z,3.67
2023-05-19T17:01:23.508Z,4.03
2023-05-19T17:03:51.907Z,3.63
2023-05-19T17:06:20.444Z,3.27
2023-05-19T17:08:50.463Z,3.50
2023-05-19T17:11:18.750Z,3.30
2023-05-19T17:13:47.025Z,3.33
2023-05-19T17:16:15.370Z,3.30
2023-05-19T17:18:46.651Z,3.37
2023-05-19T17:21:15.460Z,3.87
2023-05-19T17:23:43.709Z,3.43
2023-05-19T17:26:13.373Z,3.67
2023-05-19T17:28:41.621Z,3.37
2023-05-19T17:31:13.236Z,3.53
2023-05-19T17:33:41.493Z,3.43
2023-05-19T17:36:10.151Z,3.53
2023-05-19T17:38:40.444Z,4.00
2023-05-19T17:41:10.998Z,3.67
2023-05-19T17:43:41.414Z,3.47
2023-05-19T17:46:09.765Z,4.10
2023-05-19T17:48:38.286Z,3.67
2023-05-19T17:51:07.503Z,3.23
2023-05-19T17:53:36.653Z,3.40
2023-05-19T17:56:06.613Z,5.53
2023-05-19T17:58:35.607Z,3.63
2023-05-19T18:01:06.173Z,3.73
2023-05-19T18:03:35.165Z,3.70
2023-05-19T18:06:03.646Z,3.87
2023-05-19T18:08:32.619Z,3.70
2023-05-19T18:11:00.932Z,4.37
2023-05-19T18:13:29.201Z,4.60
2023-05-19T18:15:59.754Z,3.80
2023-05-19T18:18:29.491Z,3.30
2023-05-19T18:20:57.768Z,4.20
2023-05-19T18:23:26.032Z,4.23
2023-05-19T18:25:54.370Z,3.53
2023-05-19T18:28:22.592Z,4.00
2023-05-19T18:31:00.185Z,4.30
2023-05-19T18:33:30.945Z,4.13
2023-05-19T18:35:59.655Z,3.90
2023-05-19T18:38:27.965Z,3.80
2023-05-19T18:40:56.800Z,3.80
2023-05-19T18:43:25.463Z,4.70
2023-05-19T18:45:53.706Z,3.83
2023-05-19T18:48:22.604Z,4.23
2023-05-19T18:50:52.423Z,4.10
2023-05-19T18:53:22.265Z,4.37
2023-05-19T18:55:50.464Z,4.43
2023-05-19T18:58:18.995Z,4.80
2023-05-19T19:00:47.428Z,4.00
2023-05-19T19:03:15.982Z,4.10
2023-05-19T19:05:45.380Z,4.50
2023-05-19T19:08:15.016Z,4.20
2023-05-19T19:10:44.455Z,4.83
2023-05-19T19:13:12.730Z,4.20
2023-05-19T19:15:41.037Z,4.30
2023-05-19T19:18:09.403Z,4.07
2023-05-19T19:20:37.711Z,4.23
2023-05-19T19:23:06.841Z,4.20
2023-05-19T19:25:36.587Z,4.00
2023-05-19T19:28:04.973Z,4.37
2023-05-19T19:30:33.450Z,4.77
2023-05-19T19:33:02.411Z,4.77
2023-05-19T19:35:31.844Z,4.50
2023-05-19T19:38:00.425Z,4.57
2023-05-19T19:40:29.379Z,5.10
2023-05-19T19:42:59.059Z,5.27
2023-05-19T19:45:27.273Z,4.83
2023-05-19T19:47:55.659Z,4.10
2023-05-19T19:50:23.962Z,4.30
2023-05-19T19:52:52.985Z,4.27
2023-05-19T19:55:21.265Z,4.37
2023-05-19T19:57:51.242Z,4.50
2023-05-19T20:00:21.551Z,4.27
2023-05-19T20:03:03.565Z,4.60
2023-05-19T20:05:32.712Z,4.20
2023-05-19T20:08:01.207Z,4.57
2023-05-19T20:10:29.590Z,4.20
2023-05-19T20:12:59.345Z,4.27
2023-05-19T20:15:28.995Z,4.50
2023-05-19T20:17:57.509Z,4.23
2023-05-19T20:20:25.785Z,4.30
2023-05-19T20:22:54.049Z,4.83
2023-05-19T20:25:22.440Z,4.20
2023-05-19T20:27:50.738Z,4.00
2023-05-19T20:30:19.264Z,4.57
2023-05-19T20:32:49.212Z,4.00
2023-05-19T20:35:17.542Z,4.37
2023-05-19T20:37:45.845Z,4.60
2023-05-19T20:40:14.206Z,4.03
2023-05-19T20:42:42.514Z,4.43
2023-05-19T20:45:11.609Z,4.77
2023-05-19T20:47:39.921Z,4.50
2023-05-19T20:50:10.194Z,4.33
2023-05-19T20:52:38.459Z,4.60
2023-05-19T20:55:07.136Z,4.93
2023-05-19T20:57:35.874Z,4.90
2023-05-19T21:00:04.882Z,4.97
2023-05-19T21:02:33.220Z,4.40
2023-05-19T21:05:01.713Z,4.23
2023-05-19T21:07:31.511Z,4.77
2023-05-19T21:09:59.748Z,4.13
2023-05-19T21:12:33.962Z,4.33
2023-05-19T21:15:03.678Z,4.37
2023-05-19T21:17:32.180Z,4.07
2023-05-19T21:20:01.237Z,4.47
2023-05-19T21:22:29.563Z,4.53
2023-05-19T21:24:59.523Z,4.50
2023-05-19T21:27:28.042Z,4.20
2023-05-19T21:29:56.482Z,4.70
2023-05-19T21:32:25.019Z,4.17
2023-05-19T21:34:53.354Z,4.37
2023-05-19T21:37:21.801Z,4.00
2023-05-19T21:39:52.531Z,4.10
2023-05-19T21:42:22.250Z,3.83
2023-05-19T21:44:50.555Z,4.03
2023-05-19T21:47:18.829Z,4.23
2023-05-19T21:49:47.144Z,4.40
2023-05-19T21:52:15.688Z,4.47
2023-05-19T21:54:44.234Z,4.20
2023-05-19T21:57:13.140Z,4.07
2023-05-19T21:59:43.742Z,4.53
2023-05-19T22:02:12.039Z,4.37
2023-05-19T22:04:40.383Z,4.43
2023-05-19T22:07:09.272Z,4.17
2023-05-19T22:09:38.061Z,4.37
2023-05-19T22:12:07.164Z,4.37
2023-05-19T22:14:35.443Z,4.67
2023-05-19T22:17:05.277Z,5.03
2023-05-19T22:19:33.604Z,5.90
2023-05-19T22:22:13.178Z,5.43
2023-05-19T22:24:42.312Z,4.77
2023-05-19T22:27:10.555Z,4.87
2023-05-19T22:29:39.222Z,4.40
2023-05-19T22:32:12.076Z,4.30
2023-05-19T22:34:40.875Z,4.23
2023-05-19T22:37:09.228Z,4.17
2023-05-19T22:39:37.537Z,4.30
2023-05-19T22:42:06.153Z,4.27
2023-05-19T22:44:34.484Z,4.37
2023-05-19T22:47:02.782Z,3.90
2023-05-19T22:49:32.718Z,4.30
2023-05-19T22:52:01.043Z,4.37
2023-05-19T22:54:29.309Z,3.87
2023-05-19T22:56:57.556Z,4.63
2023-05-19T22:59:25.786Z,4.13
2023-05-19T23:01:54.112Z,4.27
2023-05-19T23:04:22.439Z,4.10
2023-05-19T23:06:52.367Z,4.27
2023-05-19T23:09:20.732Z,4.67
2023-05-19T23:11:49.036Z,4.80
2023-05-19T23:14:18.573Z,4.97
2023-05-19T23:16:46.924Z,4.90
2023-05-19T23:19:15.287Z,4.97
2023-05-19T23:21:44.628Z,5.10
2023-05-19T23:24:14.341Z,4.83
2023-05-19T23:26:43.923Z,5.03
2023-05-19T23:29:13.550Z,5.80
2023-05-19T23:31:42.085Z,5.43
2023-05-19T23:34:10.574Z,6.50
2023-05-19T23:36:38.856Z,7.00
2023-05-19T23:39:07.171Z,6.53
2023-05-19T23:41:36.835Z,6.00
2023-05-19T23:44:05.456Z,4.50
2023-05-19T23:46:34.273Z,4.70
2023-05-19T23:49:02.573Z,5.20
2023-05-19T23:51:31.395Z,5.03
2023-05-19T23:53:59.960Z,5.27
2023-05-19T23:56:28.477Z,5.47
2023-05-19T23:58:58.316Z,5.60
